Terminal Aerodrome Forecast
Issued by NWS

Home | Current Version | Previous Version | Text Only | Print | Product List | Glossary On
Versions: 1 2 3 4 5 6 7 8 9 10 11 12 13 14
000
FTUS42 KMLB 301700
TAFTIX
TAF
KTIX 301734Z 3018/0118 32006KT P6SM VCSH SCT019 BKN030
      TEMPO 3018/3021 3SM SHRA BKN025
     FM302100 34008KT P6SM SCT020 OVC040
      TEMPO 3021/3023 2SM SHRA BKN020
     FM010000 01006KT P6SM VCSH SCT020 BKN080
     FM011300 03006KT P6SM SCT015 BKN035=

USA.gov is the U.S. government's official web portal to all federal, state and local government web resources and services.